Terminal Aerodrome Forecast
Issued by NWS

Home | Current Version | Previous Version | Graphics & Text | Print | Product List | Glossary On
Versions: 1 2 3 4 5 6 7 8 9 10 11 12 13 14 15 16
000
FTUS43 KGRB 291100
TAFMTW
TAF
KMTW 291137Z 2912/3012 20014G22KT P6SM OVC250 WS010/22040KT
     FM291400 19020G30KT P6SM SCT100 OVC250
     FM291600 19023G35KT 3SM -RAPL SCT015 OVC040
      TEMPO 2916/2918 1SM -RASN SCT007 OVC015
     FM291800 20022G34KT P6SM -SHRA BKN025
     FM292200 23017G25KT P6SM BKN040
     FM300200 28014KT P6SM SCT050=

USA.gov is the U.S. government's official web portal to all federal, state and local government web resources and services.